createdAt,value
2017-09-05T00:02:01.226Z,5.73
2017-09-05T00:04:32.315Z,5.93
2017-09-05T00:07:02.104Z,6.17
2017-09-05T00:09:50.956Z,5.70
2017-09-05T00:12:29.186Z,6.53
2017-09-05T00:15:07.112Z,5.63
2017-09-05T00:17:38.417Z,6.10
2017-09-05T00:20:07.882Z,5.53
2017-09-05T00:22:38.294Z,6.00
2017-09-05T00:25:07.793Z,5.47
2017-09-05T00:27:50.675Z,5.17
2017-09-05T00:30:20.110Z,6.37
2017-09-05T00:32:49.536Z,6.00
2017-09-05T00:35:18.977Z,5.30
2017-09-05T00:38:02.703Z,5.63
2017-09-05T00:40:32.166Z,5.97
2017-09-05T00:43:01.653Z,5.40
2017-09-05T00:45:37.156Z,5.17
2017-09-05T00:48:06.594Z,5.60
2017-09-05T00:50:48.928Z,5.47
2017-09-05T00:53:18.402Z,5.97
2017-09-05T00:56:00.513Z,5.33
2017-09-05T00:58:44.709Z,5.80
2017-09-05T01:01:26.299Z,5.40
2017-09-05T01:04:01.749Z,5.27
2017-09-05T01:06:31.197Z,6.00
2017-09-05T01:09:16.503Z,6.20
2017-09-05T01:11:45.947Z,5.80
2017-09-05T01:14:18.980Z,5.87
2017-09-05T01:16:55.902Z,5.80
2017-09-05T01:19:39.190Z,5.60
2017-09-05T01:22:19.786Z,6.20
2017-09-05T01:24:55.899Z,6.03
2017-09-05T01:27:25.561Z,5.57
2017-09-05T01:29:55.006Z,5.93
2017-09-05T01:32:24.681Z,6.50
2017-09-05T01:35:07.359Z,6.30
2017-09-05T01:37:50.059Z,6.03
2017-09-05T01:40:19.503Z,5.93
2017-09-05T01:42:48.907Z,5.70
2017-09-05T01:45:18.486Z,5.60
2017-09-05T01:47:47.938Z,6.00
2017-09-05T01:50:17.366Z,5.33
2017-09-05T01:52:47.037Z,5.73
2017-09-05T01:55:17.467Z,5.67
2017-09-05T01:57:46.861Z,5.50
2017-09-05T02:00:16.240Z,6.00
2017-09-05T02:02:45.812Z,5.80
2017-09-05T02:05:15.402Z,5.73
2017-09-05T02:07:44.984Z,5.70
2017-09-05T02:10:14.394Z,6.10
2017-09-05T02:12:43.777Z,6.37
2017-09-05T02:15:40.021Z,5.93
2017-09-05T02:18:09.556Z,5.53
2017-09-05T02:20:46.646Z,6.10
2017-09-05T02:23:16.110Z,6.07
2017-09-05T02:25:45.755Z,6.20
2017-09-05T02:28:22.902Z,5.80
2017-09-05T02:30:52.374Z,6.27
2017-09-05T02:33:22.255Z,6.40
2017-09-05T02:35:51.895Z,6.00
2017-09-05T02:38:21.566Z,5.77
2017-09-05T02:40:57.046Z,5.90
2017-09-05T02:43:26.513Z,6.33
2017-09-05T02:46:10.580Z,6.13
2017-09-05T02:48:40.013Z,5.90
2017-09-05T02:51:09.436Z,6.50
2017-09-05T02:53:39.074Z,5.90
2017-09-05T02:56:08.662Z,5.93
2017-09-05T02:58:51.929Z,6.40
2017-09-05T03:01:21.442Z,6.83
2017-09-05T03:03:56.039Z,5.93
2017-09-05T03:06:25.614Z,6.73
2017-09-05T03:08:55.061Z,6.40
2017-09-05T03:11:39.962Z,6.60
2017-09-05T03:14:10.184Z,6.40
2017-09-05T03:16:39.671Z,6.80
2017-09-05T03:19:10.265Z,6.50
2017-09-05T03:21:52.882Z,6.27
2017-09-05T03:24:22.337Z,6.67
2017-09-05T03:26:51.928Z,6.97
2017-09-05T03:29:21.969Z,6.37
2017-09-05T03:32:04.846Z,6.30
2017-09-05T03:34:34.285Z,6.40
2017-09-05T03:37:16.705Z,6.47
2017-09-05T03:39:46.154Z,8.13
2017-09-05T03:42:15.560Z,7.00
2017-09-05T03:44:58.580Z,6.40
2017-09-05T03:47:28.038Z,6.77
2017-09-05T03:49:57.429Z,6.97
2017-09-05T03:52:26.819Z,6.23
2017-09-05T03:55:02.310Z,6.83
2017-09-05T03:57:31.749Z,7.17
2017-09-05T04:00:07.550Z,7.03
2017-09-05T04:02:44.373Z,8.07
2017-09-05T04:05:27.790Z,9.07
2017-09-05T04:07:57.250Z,8.20
2017-09-05T04:10:29.875Z,8.53
2017-09-05T04:12:59.494Z,8.30
2017-09-05T04:15:28.932Z,7.30
2017-09-05T04:18:11.962Z,8.07
2017-09-05T04:20:41.406Z,8.57
2017-09-05T04:23:19.381Z,8.70
2017-09-05T04:25:55.994Z,9.60
2017-09-05T04:28:25.436Z,10.37
2017-09-05T04:31:00.930Z,13.37
2017-09-05T04:33:30.395Z,11.90
2017-09-05T04:35:59.841Z,10.30
2017-09-05T04:38:35.284Z,11.33
2017-09-05T04:41:06.111Z,13.03
2017-09-05T04:43:35.550Z,8.70
2017-09-05T04:46:04.998Z,10.37
2017-09-05T04:48:34.470Z,10.10
2017-09-05T04:51:03.860Z,14.00
2017-09-05T04:53:33.301Z,14.90
2017-09-05T04:56:02.731Z,12.40
2017-09-05T04:58:32.157Z,14.77
2017-09-05T05:01:01.570Z,16.30
2017-09-05T05:03:30.970Z,15.23
2017-09-05T05:06:00.543Z,15.53
2017-09-05T05:08:42.121Z,15.23
2017-09-05T05:11:17.731Z,18.37
2017-09-05T05:13:47.193Z,20.13
2017-09-05T05:16:16.606Z,20.67
2017-09-05T05:18:46.059Z,17.10
2017-09-05T05:21:15.483Z,14.67
2017-09-05T05:23:58.942Z,13.30
2017-09-05T05:26:28.406Z,14.40
2017-09-05T05:29:03.898Z,13.30
2017-09-05T05:31:41.464Z,14.80
2017-09-05T05:34:30.642Z,18.50
2017-09-05T05:37:08.009Z,23.87
2017-09-05T05:39:44.469Z,24.67
2017-09-05T05:42:21.620Z,19.70
2017-09-05T05:44:51.076Z,18.27
2017-09-05T05:47:20.493Z,20.83
2017-09-05T05:49:49.945Z,24.77
2017-09-05T05:52:30.249Z,27.40
2017-09-05T05:54:59.687Z,24.60
2017-09-05T05:57:29.180Z,23.80
2017-09-05T05:59:58.659Z,21.87
2017-09-05T06:02:46.984Z,22.63
2017-09-05T06:05:16.423Z,21.80
2017-09-05T06:07:45.817Z,21.40
2017-09-05T06:10:21.344Z,18.53
2017-09-05T06:12:56.782Z,17.57
2017-09-05T06:15:26.234Z,22.63
2017-09-05T06:17:55.726Z,24.87
2017-09-05T06:20:25.179Z,19.73
2017-09-05T06:23:09.364Z,21.63
2017-09-05T06:25:38.810Z,20.93
2017-09-05T06:28:08.283Z,21.40
2017-09-05T06:30:37.710Z,16.70
2017-09-05T06:33:20.780Z,21.40
2017-09-05T06:35:50.233Z,22.90
2017-09-05T06:38:32.014Z,24.80
2017-09-05T06:41:04.801Z,21.83
2017-09-05T06:43:34.458Z,26.80
2017-09-05T06:46:18.678Z,23.10
2017-09-05T06:48:48.151Z,16.13
2017-09-05T06:51:17.612Z,13.53
2017-09-05T06:53:54.459Z,12.07
2017-09-05T06:56:31.069Z,7.70
2017-09-05T06:59:00.511Z,7.10
2017-09-05T07:01:47.322Z,6.70
2017-09-05T07:04:17.313Z,6.77
2017-09-05T07:07:01.082Z,6.20
2017-09-05T07:09:36.718Z,7.10
2017-09-05T07:12:06.176Z,6.60
2017-09-05T07:14:42.989Z,6.50
2017-09-05T07:17:31.213Z,6.07
2017-09-05T07:20:07.775Z,6.80
2017-09-05T07:22:37.737Z,6.33
2017-09-05T07:25:07.429Z,7.33
2017-09-05T07:27:48.998Z,6.30
2017-09-05T07:30:18.457Z,6.00
2017-09-05T07:32:47.895Z,6.73
2017-09-05T07:35:27.590Z,5.80
2017-09-05T07:37:56.996Z,6.03
2017-09-05T07:40:26.650Z,6.23
2017-09-05T07:42:56.050Z,5.62
2017-09-05T07:45:28.659Z,18.80
2017-09-05T07:48:02.931Z,6.60
2017-09-05T07:50:32.401Z,8.00
2017-09-05T07:53:15.903Z,5.93
2017-09-05T07:55:45.597Z,7.40
2017-09-05T07:58:19.345Z,7.83
2017-09-05T08:00:56.042Z,5.30
2017-09-05T08:03:25.485Z,5.70
2017-09-05T08:05:55.313Z,6.07
2017-09-05T08:08:24.713Z,5.97
2017-09-05T08:11:16.125Z,6.57
2017-09-05T08:13:53.404Z,5.87
2017-09-05T08:16:22.897Z,6.73
2017-09-05T08:18:52.390Z,9.97
2017-09-05T08:21:22.076Z,6.67
2017-09-05T08:23:51.596Z,8.37
2017-09-05T08:26:21.045Z,7.00
2017-09-05T08:28:50.472Z,5.70
2017-09-05T08:31:19.894Z,5.70
2017-09-05T08:34:02.935Z,16.40
2017-09-05T08:36:33.694Z,8.17
2017-09-05T08:39:03.266Z,7.53
2017-09-05T08:41:34.384Z,51.13
2017-09-05T08:44:07.867Z,5.80
2017-09-05T08:46:37.301Z,8.70
2017-09-05T08:49:06.749Z,6.10
2017-09-05T08:51:53.931Z,6.23
2017-09-05T08:54:23.696Z,6.37
2017-09-05T08:56:53.343Z,12.37
2017-09-05T08:59:22.917Z,6.30
2017-09-05T09:01:52.364Z,6.17
2017-09-05T09:04:22.047Z,7.17
2017-09-05T09:07:07.041Z,6.17
2017-09-05T09:09:36.759Z,6.50
2017-09-05T09:12:07.399Z,13.00
2017-09-05T09:14:37.415Z,7.20
2017-09-05T09:17:13.639Z,5.73
2017-09-05T09:19:43.095Z,5.70
2017-09-05T09:22:25.899Z,6.33
2017-09-05T09:24:55.353Z,5.40
2017-09-05T09:27:24.829Z,5.90
2017-09-05T09:29:54.283Z,5.63
2017-09-05T09:32:31.051Z,5.90
2017-09-05T09:35:00.505Z,5.10
2017-09-05T09:37:45.057Z,5.17
2017-09-05T09:40:14.675Z,5.40
2017-09-05T09:42:44.986Z,5.20
2017-09-05T09:45:16.132Z,5.53
2017-09-05T09:47:52.895Z,5.57
2017-09-05T09:50:22.627Z,5.47
2017-09-05T09:53:04.237Z,5.13
2017-09-05T09:55:34.383Z,6.40
2017-09-05T09:58:03.858Z,5.23
2017-09-05T10:00:33.308Z,5.07
2017-09-05T10:03:15.470Z,5.77
2017-09-05T10:05:57.778Z,4.77
2017-09-05T10:08:34.730Z,4.77
2017-09-05T10:11:04.338Z,5.17
2017-09-05T10:13:34.182Z,4.70
2017-09-05T10:16:12.318Z,5.53
2017-09-05T10:18:54.925Z,4.50
2017-09-05T10:21:31.358Z,4.87
2017-09-05T10:24:01.099Z,5.47
2017-09-05T10:26:38.146Z,4.70
2017-09-05T10:29:19.699Z,4.57
2017-09-05T10:31:49.125Z,4.57
2017-09-05T10:34:19.091Z,4.27
2017-09-05T10:37:02.350Z,4.90
2017-09-05T10:39:31.929Z,4.70
2017-09-05T10:42:02.767Z,4.00
2017-09-05T10:44:45.807Z,4.60
2017-09-05T10:47:16.251Z,4.90
2017-09-05T10:49:51.729Z,4.50
2017-09-05T10:52:21.331Z,4.80
2017-09-05T10:54:50.977Z,4.50
2017-09-05T10:57:20.562Z,4.70
2017-09-05T10:59:50.646Z,5.30
2017-09-05T11:02:20.430Z,5.20
2017-09-05T11:04:50.506Z,4.80
2017-09-05T11:07:19.957Z,4.50
2017-09-05T11:09:49.354Z,3.80
2017-09-05T11:12:27.373Z,5.33
2017-09-05T11:14:56.819Z,4.90
2017-09-05T11:17:26.314Z,5.30
2017-09-05T11:19:55.754Z,4.60
2017-09-05T11:22:39.971Z,4.33
2017-09-05T11:25:23.516Z,4.67
2017-09-05T11:27:52.968Z,4.27
2017-09-05T11:30:24.123Z,4.97
2017-09-05T11:32:56.802Z,4.50
2017-09-05T11:35:30.192Z,4.50
2017-09-05T11:37:59.665Z,4.60
2017-09-05T11:40:29.072Z,4.80
2017-09-05T11:42:58.684Z,4.47
2017-09-05T11:45:41.183Z,4.00
2017-09-05T11:48:16.895Z,4.00
2017-09-05T11:50:46.360Z,4.47
2017-09-05T11:53:16.792Z,4.30
2017-09-05T11:55:46.323Z,3.70
2017-09-05T11:58:15.760Z,4.63
2017-09-05T12:00:51.447Z,4.17
2017-09-05T12:03:33.016Z,4.40
2017-09-05T12:06:02.456Z,4.43
2017-09-05T12:08:31.896Z,4.17
2017-09-05T12:11:01.428Z,4.10
2017-09-05T12:13:52.391Z,4.30
2017-09-05T12:16:22.250Z,3.60
2017-09-05T12:18:57.927Z,4.20
2017-09-05T12:21:27.425Z,4.20
2017-09-05T12:24:04.402Z,3.80
2017-09-05T12:26:33.859Z,3.97
2017-09-05T12:29:03.532Z,3.93
2017-09-05T12:31:35.243Z,3.85
2017-09-05T12:34:04.723Z,3.60
2017-09-05T12:36:48.217Z,3.70
2017-09-05T12:39:17.674Z,5.22
2017-09-05T12:41:53.266Z,4.40
2017-09-05T12:44:22.963Z,4.87
2017-09-05T12:46:52.966Z,4.53
2017-09-05T12:49:36.482Z,3.85
2017-09-05T12:52:05.955Z,3.87
2017-09-05T12:54:35.455Z,4.03
2017-09-05T12:57:04.920Z,3.62
2017-09-05T12:59:35.923Z,4.07
2017-09-05T13:02:05.341Z,3.67
2017-09-05T13:04:36.674Z,4.10
2017-09-05T13:07:12.490Z,4.23
2017-09-05T13:09:42.117Z,3.90
2017-09-05T13:12:11.601Z,3.80
2017-09-05T13:14:41.270Z,4.50
2017-09-05T13:17:26.040Z,4.62
2017-09-05T13:19:55.492Z,3.87
2017-09-05T13:22:24.960Z,4.30
2017-09-05T13:24:55.110Z,4.00
2017-09-05T13:27:24.589Z,4.03
2017-09-05T13:29:54.242Z,3.78
2017-09-05T13:32:32.322Z,4.22
2017-09-05T13:35:01.868Z,4.32
2017-09-05T13:37:31.343Z,3.95
2017-09-05T13:40:00.821Z,3.92
2017-09-05T13:42:33.852Z,4.53
2017-09-05T13:45:03.336Z,4.35
2017-09-05T13:47:45.910Z,4.00
2017-09-05T13:50:15.451Z,4.20
2017-09-05T13:52:44.898Z,4.40
2017-09-05T13:55:14.367Z,4.93
2017-09-05T13:57:54.533Z,3.40
2017-09-05T14:00:30.102Z,4.00
2017-09-05T14:02:59.598Z,3.37
2017-09-05T14:05:29.210Z,3.50
2017-09-05T14:08:06.045Z,3.97
2017-09-05T14:10:35.541Z,2.83
2017-09-05T14:13:05.048Z,3.30
2017-09-05T14:15:34.575Z,3.83
2017-09-05T14:18:04.201Z,3.78
2017-09-05T14:20:33.903Z,3.17
2017-09-05T14:23:17.230Z,3.10
2017-09-05T14:25:46.799Z,2.87
2017-09-05T14:28:16.412Z,3.83
2017-09-05T14:30:46.072Z,2.97
2017-09-05T14:33:15.584Z,2.65
2017-09-05T14:35:45.786Z,3.15
2017-09-05T14:38:15.462Z,2.72
2017-09-05T14:40:58.197Z,3.15
2017-09-05T14:43:28.227Z,3.35
2017-09-05T14:45:57.683Z,3.28
2017-09-05T14:48:39.420Z,2.60
2017-09-05T14:51:08.965Z,3.30
2017-09-05T14:53:41.070Z,3.35
2017-09-05T14:56:10.587Z,3.53
2017-09-05T14:58:40.613Z,3.47
2017-09-05T15:01:10.074Z,4.10
2017-09-05T15:03:51.777Z,3.65
2017-09-05T15:06:21.987Z,3.00
2017-09-05T15:08:51.490Z,2.92
2017-09-05T15:11:28.385Z,3.20
2017-09-05T15:13:57.885Z,2.90
2017-09-05T15:16:27.396Z,3.35
2017-09-05T15:18:57.056Z,2.67
2017-09-05T15:21:26.826Z,3.08
2017-09-05T15:24:11.010Z,2.65
2017-09-05T15:26:40.710Z,2.58
2017-09-05T15:29:23.444Z,3.33
2017-09-05T15:31:53.120Z,3.05
2017-09-05T15:34:22.789Z,2.47
2017-09-05T15:36:52.594Z,2.50
2017-09-05T15:39:22.199Z,2.78
2017-09-05T15:41:51.681Z,2.53
2017-09-05T15:44:40.016Z,2.60
2017-09-05T15:47:09.561Z,2.90
2017-09-05T15:49:38.997Z,2.58
2017-09-05T15:52:16.272Z,2.15
2017-09-05T15:54:45.754Z,3.17
2017-09-05T15:57:21.425Z,2.60
2017-09-05T15:59:50.934Z,2.92
2017-09-05T16:02:35.938Z,3.20
2017-09-05T16:05:05.617Z,3.58
2017-09-05T16:07:35.178Z,2.83
2017-09-05T16:10:04.581Z,2.33
2017-09-05T16:12:41.358Z,2.53
2017-09-05T16:15:12.096Z,3.00
2017-09-05T16:17:41.762Z,2.45
2017-09-05T16:20:18.830Z,3.20
2017-09-05T16:22:48.362Z,2.10
2017-09-05T16:25:32.324Z,2.90
2017-09-05T16:28:08.306Z,2.58
2017-09-05T16:30:37.780Z,2.75
2017-09-05T16:33:07.215Z,2.78
2017-09-05T16:35:37.970Z,2.60
2017-09-05T16:38:07.739Z,2.75
2017-09-05T16:40:37.811Z,3.65
2017-09-05T16:43:11.432Z,3.42
2017-09-05T16:45:41.484Z,3.08
2017-09-05T16:48:11.194Z,3.78
2017-09-05T16:50:41.007Z,4.40
2017-09-05T16:53:11.509Z,3.47
2017-09-05T16:55:41.610Z,3.87
2017-09-05T16:58:11.351Z,3.50
2017-09-05T17:00:41.375Z,3.90
2017-09-05T17:03:10.903Z,3.80
2017-09-05T17:05:40.479Z,3.97
2017-09-05T17:08:09.919Z,4.20
2017-09-05T17:10:39.509Z,3.97
2017-09-05T17:13:15.051Z,4.20
2017-09-05T17:15:44.838Z,4.20
2017-09-05T17:18:14.754Z,4.50
2017-09-05T17:20:44.252Z,4.17
2017-09-05T17:23:15.623Z,4.43
2017-09-05T17:25:45.132Z,4.60
2017-09-05T17:28:14.662Z,4.27
2017-09-05T17:30:44.381Z,4.30
2017-09-05T17:33:13.959Z,4.20
2017-09-05T17:35:49.745Z,4.43
2017-09-05T17:38:19.323Z,4.30
2017-09-05T17:40:48.794Z,4.60
2017-09-05T17:43:18.408Z,5.10
2017-09-05T17:46:04.438Z,4.63
2017-09-05T17:48:33.947Z,5.30
2017-09-05T17:51:03.508Z,5.03
2017-09-05T17:53:32.957Z,4.63
2017-09-05T17:56:02.348Z,4.37
2017-09-05T17:58:31.797Z,4.73
2017-09-05T18:01:15.524Z,4.63
2017-09-05T18:03:58.207Z,4.70
2017-09-05T18:06:27.816Z,4.73
2017-09-05T18:08:57.280Z,4.73
2017-09-05T18:11:26.665Z,4.60
2017-09-05T18:13:56.165Z,5.27
2017-09-05T18:16:25.808Z,5.07
2017-09-05T18:18:55.244Z,5.80
2017-09-05T18:21:38.438Z,6.00
2017-09-05T18:24:08.034Z,5.13
2017-09-05T18:26:47.226Z,5.07
2017-09-05T18:29:16.707Z,5.27
2017-09-05T18:31:53.317Z,5.40
2017-09-05T18:34:28.845Z,5.07
2017-09-05T18:36:58.808Z,5.37
2017-09-05T18:39:28.207Z,5.23
2017-09-05T18:41:57.680Z,5.47
2017-09-05T18:44:27.377Z,5.90
2017-09-05T18:47:09.915Z,5.70
2017-09-05T18:49:39.348Z,5.27
2017-09-05T18:52:08.858Z,5.50
2017-09-05T18:54:38.273Z,5.47
2017-09-05T18:57:08.005Z,5.27
2017-09-05T18:59:37.439Z,4.80
2017-09-05T19:02:06.992Z,5.33
2017-09-05T19:04:36.412Z,6.33
2017-09-05T19:07:13.450Z,5.80
2017-09-05T19:09:42.892Z,5.47
2017-09-05T19:12:12.372Z,5.97
2017-09-05T19:14:41.813Z,5.27
2017-09-05T19:17:11.261Z,5.90
2017-09-05T19:19:47.015Z,5.80
2017-09-05T19:22:16.487Z,5.83
2017-09-05T19:24:45.923Z,5.40
2017-09-05T19:27:15.348Z,6.40
2017-09-05T19:29:44.836Z,5.47
2017-09-05T19:32:15.193Z,5.53
2017-09-05T19:34:44.985Z,5.60
2017-09-05T19:37:14.489Z,5.93
2017-09-05T19:39:56.104Z,5.23
2017-09-05T19:42:25.713Z,5.87
2017-09-05T19:44:55.408Z,5.20
2017-09-05T19:47:25.087Z,5.47
2017-09-05T19:49:54.615Z,6.23
2017-09-05T19:52:24.085Z,5.67
2017-09-05T19:55:06.886Z,6.30
2017-09-05T19:57:36.376Z,9.90
2017-09-05T20:00:05.863Z,6.70
2017-09-05T20:02:35.568Z,5.27
2017-09-05T20:05:12.809Z,5.47
2017-09-05T20:07:42.397Z,5.57
2017-09-05T20:10:12.156Z,7.47
2017-09-05T20:12:42.154Z,5.37
2017-09-05T20:15:11.759Z,5.37
2017-09-05T20:17:41.303Z,5.00
2017-09-05T20:20:12.528Z,5.50
2017-09-05T20:22:42.201Z,5.83
2017-09-05T20:25:17.755Z,5.20
2017-09-05T20:27:47.218Z,5.50
2017-09-05T20:30:24.586Z,6.17
2017-09-05T20:32:54.204Z,5.10
2017-09-05T20:35:24.780Z,5.80
2017-09-05T20:38:07.251Z,6.50
2017-09-05T20:40:36.841Z,6.47
2017-09-05T20:43:14.369Z,6.23
2017-09-05T20:45:44.392Z,5.67
2017-09-05T20:48:14.326Z,5.97
2017-09-05T20:50:43.842Z,5.93
2017-09-05T20:53:19.632Z,5.90
2017-09-05T20:55:49.471Z,5.67
2017-09-05T20:58:26.337Z,6.40
2017-09-05T21:00:55.823Z,6.10
2017-09-05T21:03:25.347Z,6.33
2017-09-05T21:05:54.866Z,6.03
2017-09-05T21:08:36.458Z,6.47
2017-09-05T21:11:06.023Z,6.40
2017-09-05T21:13:43.293Z,6.30
2017-09-05T21:16:12.934Z,5.93
2017-09-05T21:18:55.575Z,6.57
2017-09-05T21:21:26.597Z,7.23
2017-09-05T21:23:56.092Z,6.57
2017-09-05T21:26:25.589Z,6.20
2017-09-05T21:29:08.804Z,5.83
2017-09-05T21:31:44.513Z,6.87
2017-09-05T21:34:13.998Z,7.47
2017-09-05T21:36:43.915Z,6.30
2017-09-05T21:39:26.706Z,6.47
2017-09-05T21:41:56.152Z,7.87
2017-09-05T21:44:31.728Z,6.70
2017-09-05T21:47:09.053Z,6.20
2017-09-05T21:49:38.890Z,7.53
2017-09-05T21:52:14.738Z,6.23
2017-09-05T21:54:57.323Z,6.93
2017-09-05T21:57:26.856Z,6.53
2017-09-05T21:59:56.323Z,7.50
2017-09-05T22:02:25.921Z,7.60
2017-09-05T22:04:55.568Z,6.60
2017-09-05T22:07:24.972Z,6.10
2017-09-05T22:09:54.491Z,6.10
2017-09-05T22:12:23.931Z,5.50
2017-09-05T22:14:59.020Z,6.80
2017-09-05T22:17:28.489Z,7.00
2017-09-05T22:20:10.254Z,6.90
2017-09-05T22:22:45.959Z,5.20
2017-09-05T22:25:21.389Z,7.47
2017-09-05T22:28:04.044Z,6.37
2017-09-05T22:30:33.505Z,7.40
2017-09-05T22:33:10.912Z,7.17
2017-09-05T22:35:40.366Z,7.50
2017-09-05T22:38:22.872Z,6.30
2017-09-05T22:40:55.430Z,5.80
2017-09-05T22:43:31.043Z,6.70
2017-09-05T22:46:00.463Z,7.33
2017-09-05T22:48:29.865Z,7.87
2017-09-05T22:50:59.275Z,6.80
2017-09-05T22:53:29.434Z,6.33
2017-09-05T22:56:05.168Z,6.93
2017-09-05T22:58:35.296Z,6.43
2017-09-05T23:01:04.732Z,6.67
2017-09-05T23:03:34.132Z,6.63
2017-09-05T23:06:03.802Z,6.73
2017-09-05T23:08:33.244Z,6.67
2017-09-05T23:11:02.586Z,6.83
2017-09-05T23:13:32.039Z,6.50
2017-09-05T23:16:01.528Z,6.97
2017-09-05T23:18:30.984Z,7.30
2017-09-05T23:21:00.414Z,7.00
2017-09-05T23:23:29.839Z,7.20
2017-09-05T23:26:00.270Z,7.37
2017-09-05T23:28:29.701Z,7.27
2017-09-05T23:30:59.089Z,6.63
2017-09-05T23:33:28.485Z,6.90
2017-09-05T23:35:59.240Z,6.40
2017-09-05T23:38:28.710Z,7.07
2017-09-05T23:40:58.255Z,7.63
2017-09-05T23:43:27.660Z,7.27
2017-09-05T23:45:58.238Z,7.17
2017-09-05T23:48:29.297Z,6.20
2017-09-05T23:50:58.750Z,6.70
2017-09-05T23:53:28.164Z,6.80
2017-09-05T23:55:57.615Z,7.70
2017-09-05T23:58:29.987Z,7.17
